Terminal Aerodrome Forecast
Issued by NWS Nashville, TN

Home | Current Version | Previous Version | Text Only | Print | Product List | Glossary On
Versions: 1 2 3 4 5 6 7 8 9 10 11 12 13 14 15 16 17 18
000
FTUS44 KOHX 311722
TAFCSV
TAF
KCSV 311722Z 3118/0118 00000KT P6SM FEW030 BKN040 BKN050
     FM010600 00000KT 5SM BR SKC
      TEMPO 0108/0112 2SM BR
     FM011400 07003KT P6SM SCT250=

USA.gov is the U.S. government's official web portal to all federal, state and local government web resources and services.